createdAt,value
2019-06-10T00:03:00.000Z,20.3
2019-06-10T00:08:00.000Z,20.3
2019-06-10T00:13:00.000Z,20.2
2019-06-10T00:23:00.000Z,20.2
2019-06-10T00:28:00.000Z,20.2
2019-06-10T00:33:00.000Z,20.1
2019-06-10T00:38:00.000Z,20.1
2019-06-10T00:43:00.000Z,20.0
2019-06-10T00:48:00.000Z,19.9
2019-06-10T00:53:00.000Z,19.9
2019-06-10T00:58:00.000Z,19.9
2019-06-10T01:03:00.000Z,19.9
2019-06-10T01:08:00.000Z,19.9
2019-06-10T01:13:00.000Z,19.9
2019-06-10T01:18:00.000Z,19.9
2019-06-10T01:23:00.000Z,19.9
2019-06-10T01:28:00.000Z,19.9
2019-06-10T01:33:00.000Z,19.8
2019-06-10T01:38:00.000Z,19.8
2019-06-10T01:43:00.000Z,19.8
2019-06-10T01:48:00.000Z,19.8
2019-06-10T01:54:00.000Z,19.7
2019-06-10T01:59:00.000Z,19.8
2019-06-10T02:04:00.000Z,19.8
2019-06-10T02:09:00.000Z,19.7
2019-06-10T02:14:00.000Z,19.7
2019-06-10T02:19:00.000Z,19.7
2019-06-10T02:24:00.000Z,19.6
2019-06-10T02:29:00.000Z,19.6
2019-06-10T02:34:00.000Z,19.6
2019-06-10T02:39:00.000Z,19.5
2019-06-10T02:44:00.000Z,19.5
2019-06-10T02:49:00.000Z,19.6
2019-06-10T02:54:00.000Z,19.6
2019-06-10T02:59:00.000Z,19.7
2019-06-10T03:04:00.000Z,19.8
2019-06-10T03:09:00.000Z,19.8
2019-06-10T03:14:00.000Z,19.8
2019-06-10T03:19:00.000Z,19.8
2019-06-10T03:24:00.000Z,19.7
2019-06-10T03:29:00.000Z,19.7
2019-06-10T03:35:00.000Z,19.6
2019-06-10T03:40:00.000Z,19.6
2019-06-10T03:45:00.000Z,19.6
2019-06-10T03:50:00.000Z,19.6
2019-06-10T03:55:00.000Z,19.6
2019-06-10T04:00:00.000Z,19.6
2019-06-10T04:05:00.000Z,19.7
2019-06-10T04:10:00.000Z,19.7
2019-06-10T04:15:00.000Z,19.8
2019-06-10T04:20:00.000Z,19.9
2019-06-10T04:25:00.000Z,20.1
2019-06-10T04:30:00.000Z,20.2
2019-06-10T04:35:00.000Z,20.4
2019-06-10T04:40:00.000Z,20.5
2019-06-10T04:45:00.000Z,20.6
2019-06-10T04:50:00.000Z,20.8
2019-06-10T04:55:00.000Z,20.9
2019-06-10T05:00:00.000Z,21.1
2019-06-10T05:05:00.000Z,21.3
2019-06-10T05:10:00.000Z,21.5
2019-06-10T05:15:00.000Z,21.6
2019-06-10T05:20:00.000Z,21.8
2019-06-10T05:25:00.000Z,22.0
2019-06-10T05:30:00.000Z,22.1
2019-06-10T05:36:00.000Z,22.4
2019-06-10T05:41:00.000Z,22.5
2019-06-10T05:46:00.000Z,22.7
2019-06-10T05:51:00.000Z,22.9
2019-06-10T05:56:00.000Z,23.1
2019-06-10T06:01:00.000Z,23.2
2019-06-10T06:06:00.000Z,23.4
2019-06-10T06:11:00.000Z,23.5
2019-06-10T06:16:00.000Z,23.7
2019-06-10T06:21:00.000Z,23.9
2019-06-10T06:26:00.000Z,24.2
2019-06-10T06:31:00.000Z,24.4
2019-06-10T06:36:00.000Z,24.6
2019-06-10T06:41:00.000Z,24.8
2019-06-10T06:46:00.000Z,25.2
2019-06-10T06:51:00.000Z,25.8
2019-06-10T06:56:00.000Z,26.1
2019-06-10T07:02:00.000Z,26.6
2019-06-10T07:07:00.000Z,27.1
2019-06-10T07:12:00.000Z,27.4
2019-06-10T07:17:00.000Z,27.8
2019-06-10T07:22:00.000Z,28.1
2019-06-10T07:27:00.000Z,28.3
2019-06-10T07:32:00.000Z,28.5
2019-06-10T07:37:00.000Z,28.7
2019-06-10T07:42:00.000Z,29.0
2019-06-10T07:47:00.000Z,29.3
2019-06-10T07:52:00.000Z,29.4
2019-06-10T07:57:00.000Z,29.5
2019-06-10T08:02:00.000Z,29.6
2019-06-10T08:07:00.000Z,29.8
2019-06-10T08:12:00.000Z,30.1
2019-06-10T08:17:00.000Z,30.2
2019-06-10T08:22:00.000Z,30.4
2019-06-10T08:27:00.000Z,30.6
2019-06-10T08:32:00.000Z,30.7
2019-06-10T08:37:00.000Z,30.8
2019-06-10T08:42:00.000Z,31.0
2019-06-10T08:47:00.000Z,31.2
2019-06-10T08:52:00.000Z,31.3
2019-06-10T08:58:00.000Z,31.4
2019-06-10T09:03:00.000Z,31.5
2019-06-10T09:08:00.000Z,31.6
2019-06-10T09:13:00.000Z,31.9
2019-06-10T09:18:00.000Z,32.0
2019-06-10T09:23:00.000Z,32.0
2019-06-10T09:28:00.000Z,32.1
2019-06-10T09:33:00.000Z,32.2
2019-06-10T09:38:00.000Z,32.2
2019-06-10T09:43:00.000Z,32.3
2019-06-10T09:48:00.000Z,32.3
2019-06-10T09:53:00.000Z,32.3
2019-06-10T09:58:00.000Z,32.5
2019-06-10T10:03:00.000Z,32.6
2019-06-10T10:09:00.000Z,32.5
2019-06-10T10:14:00.000Z,32.3
2019-06-10T10:19:00.000Z,32.2
2019-06-10T10:24:00.000Z,32.5
2019-06-10T10:29:00.000Z,32.6
2019-06-10T10:34:00.000Z,32.7
2019-06-10T10:39:00.000Z,32.8
2019-06-10T10:44:00.000Z,32.7
2019-06-10T10:49:00.000Z,32.6
2019-06-10T10:54:00.000Z,32.7
2019-06-10T10:59:00.000Z,32.8
2019-06-10T11:04:00.000Z,32.8
2019-06-10T11:09:00.000Z,32.8
2019-06-10T11:14:00.000Z,32.3
2019-06-10T11:19:00.000Z,31.6
2019-06-10T11:24:00.000Z,31.0
2019-06-10T11:29:00.000Z,30.7
2019-06-10T11:34:00.000Z,30.4
2019-06-10T11:39:00.000Z,30.5
2019-06-10T11:44:00.000Z,31.0
2019-06-10T11:50:00.000Z,31.3
2019-06-10T11:55:00.000Z,31.6
2019-06-10T12:00:00.000Z,32.0
2019-06-10T12:05:00.000Z,32.2
2019-06-10T12:10:00.000Z,32.3
2019-06-10T12:15:00.000Z,32.3
2019-06-10T12:20:00.000Z,32.1
2019-06-10T12:25:00.000Z,32.1
2019-06-10T12:30:00.000Z,32.1
2019-06-10T12:35:00.000Z,32.2
2019-06-10T12:40:00.000Z,32.2
2019-06-10T12:45:00.000Z,32.3
2019-06-10T12:50:00.000Z,32.4
2019-06-10T12:55:00.000Z,32.5
2019-06-10T13:00:00.000Z,32.6
2019-06-10T13:05:00.000Z,32.7
2019-06-10T13:10:00.000Z,32.9
2019-06-10T13:15:00.000Z,33.2
2019-06-10T13:20:00.000Z,33.2
2019-06-10T13:25:00.000Z,33.2
2019-06-10T13:31:00.000Z,32.9
2019-06-10T13:36:00.000Z,32.6
2019-06-10T13:41:00.000Z,32.4
2019-06-10T13:46:00.000Z,32.2
2019-06-10T13:51:00.000Z,32.0
2019-06-10T13:56:00.000Z,31.9
2019-06-10T14:01:00.000Z,31.9
2019-06-10T14:06:00.000Z,31.9
2019-06-10T14:11:00.000Z,32.1
2019-06-10T14:16:00.000Z,32.3
2019-06-10T14:21:00.000Z,32.5
2019-06-10T14:26:00.000Z,32.6
2019-06-10T14:32:00.000Z,32.6
2019-06-10T14:37:00.000Z,32.5
2019-06-10T14:42:00.000Z,32.3
2019-06-10T14:47:00.000Z,32.2
2019-06-10T14:52:00.000Z,32.2
2019-06-10T14:57:00.000Z,32.2
2019-06-10T15:02:00.000Z,32.1
2019-06-10T15:07:00.000Z,32.1
2019-06-10T15:12:00.000Z,32.1
2019-06-10T15:17:00.000Z,32.0
2019-06-10T15:22:00.000Z,31.8
2019-06-10T15:27:00.000Z,31.7
2019-06-10T15:32:00.000Z,31.6
2019-06-10T15:37:00.000Z,31.4
2019-06-10T15:42:00.000Z,31.3
2019-06-10T15:47:00.000Z,31.1
2019-06-10T15:52:00.000Z,30.9
2019-06-10T15:57:00.000Z,30.7
2019-06-10T16:02:00.000Z,30.5
2019-06-10T16:07:00.000Z,30.3
2019-06-10T16:12:00.000Z,30.1
2019-06-10T16:17:00.000Z,30.0
2019-06-10T16:22:00.000Z,29.9
2019-06-10T16:27:00.000Z,29.7
2019-06-10T16:32:00.000Z,29.6
2019-06-10T16:37:00.000Z,29.5
2019-06-10T16:42:00.000Z,29.4
2019-06-10T16:47:00.000Z,29.3
2019-06-10T16:52:00.000Z,29.1
2019-06-10T16:57:00.000Z,29.0
2019-06-10T17:03:00.000Z,28.9
2019-06-10T17:08:00.000Z,28.8
2019-06-10T17:13:00.000Z,28.6
2019-06-10T17:18:00.000Z,28.6
2019-06-10T17:23:00.000Z,28.5
2019-06-10T17:28:00.000Z,28.4
2019-06-10T17:33:00.000Z,28.2
2019-06-10T17:38:00.000Z,28.1
2019-06-10T17:43:00.000Z,27.9
2019-06-10T17:48:00.000Z,27.8
2019-06-10T17:53:00.000Z,27.6
2019-06-10T17:58:00.000Z,27.5
2019-06-10T18:03:00.000Z,27.4
2019-06-10T18:08:00.000Z,27.3
2019-06-10T18:13:00.000Z,27.2
2019-06-10T18:18:00.000Z,27.0
2019-06-10T18:24:00.000Z,26.9
2019-06-10T18:29:00.000Z,26.8
2019-06-10T18:34:00.000Z,26.7
2019-06-10T18:39:00.000Z,26.6
2019-06-10T18:44:00.000Z,26.6
2019-06-10T18:49:00.000Z,26.5
2019-06-10T18:54:00.000Z,26.4
2019-06-10T18:59:00.000Z,26.3
2019-06-10T19:04:00.000Z,26.2
2019-06-10T19:09:00.000Z,26.1
2019-06-10T19:14:00.000Z,26.0
2019-06-10T19:19:00.000Z,26.0
2019-06-10T19:24:00.000Z,25.9
2019-06-10T19:29:00.000Z,25.8
2019-06-10T19:34:00.000Z,25.7
2019-06-10T19:39:00.000Z,25.7
2019-06-10T19:44:00.000Z,25.6
2019-06-10T19:49:00.000Z,25.6
2019-06-10T19:54:00.000Z,25.5
2019-06-10T19:59:00.000Z,25.5
2019-06-10T20:05:00.000Z,25.4
2019-06-10T20:10:00.000Z,25.4
2019-06-10T20:15:00.000Z,25.3
2019-06-10T20:20:00.000Z,25.3
2019-06-10T20:25:00.000Z,25.1
2019-06-10T20:30:00.000Z,25.1
2019-06-10T20:35:00.000Z,25.0
2019-06-10T20:40:00.000Z,24.9
2019-06-10T20:45:00.000Z,24.8
2019-06-10T20:50:00.000Z,24.8
2019-06-10T20:55:00.000Z,24.8
2019-06-10T21:00:00.000Z,24.7
2019-06-10T21:05:00.000Z,24.7
2019-06-10T21:10:00.000Z,24.6
2019-06-10T21:16:00.000Z,24.6
2019-06-10T21:21:00.000Z,24.6
2019-06-10T21:26:00.000Z,24.5
2019-06-10T21:31:00.000Z,24.5
2019-06-10T21:36:00.000Z,24.5
2019-06-10T21:41:00.000Z,24.4
2019-06-10T21:46:00.000Z,24.4
2019-06-10T21:51:00.000Z,24.3
2019-06-10T21:56:00.000Z,24.2
2019-06-10T22:01:00.000Z,24.1
2019-06-10T22:06:00.000Z,24.0
2019-06-10T22:11:00.000Z,24.0
2019-06-10T22:16:00.000Z,23.9
2019-06-10T22:21:00.000Z,23.9
2019-06-10T22:26:00.000Z,23.9
2019-06-10T22:31:00.000Z,23.8
2019-06-10T22:36:00.000Z,23.8
2019-06-10T22:41:00.000Z,23.7
2019-06-10T22:46:00.000Z,23.7
2019-06-10T22:51:00.000Z,23.6
2019-06-10T22:56:00.000Z,23.6
2019-06-10T23:01:00.000Z,23.5
2019-06-10T23:06:00.000Z,23.5
2019-06-10T23:11:00.000Z,23.4
2019-06-10T23:16:00.000Z,23.4
2019-06-10T23:21:00.000Z,23.3
2019-06-10T23:26:00.000Z,23.3
2019-06-10T23:31:00.000Z,23.2
2019-06-10T23:37:00.000Z,23.2
2019-06-10T23:42:00.000Z,23.2
2019-06-10T23:47:00.000Z,23.2
2019-06-10T23:52:00.000Z,23.2
2019-06-10T23:57:00.000Z,23.2
